createdAt,value
2018-06-20T00:00:54.848Z,1018.35
2018-06-20T00:02:03.495Z,1018.36
2018-06-20T00:03:12.147Z,1018.35
2018-06-20T00:04:20.794Z,1018.33
2018-06-20T00:05:29.707Z,1018.34
2018-06-20T00:06:38.356Z,1018.33
2018-06-20T00:07:47.265Z,1018.29
2018-06-20T00:08:55.911Z,1018.28
2018-06-20T00:10:04.556Z,1018.29
2018-06-20T00:11:13.209Z,1018.26
2018-06-20T00:12:21.855Z,1018.27
2018-06-20T00:13:30.511Z,1018.28
2018-06-20T00:14:39.156Z,1018.22
2018-06-20T00:15:47.807Z,1018.24
2018-06-20T00:16:56.455Z,1018.23
2018-06-20T00:18:05.103Z,1018.22
2018-06-20T00:19:13.745Z,1018.17
2018-06-20T00:20:22.663Z,1018.15
2018-06-20T00:21:31.310Z,1018.15
2018-06-20T00:22:39.959Z,1018.13
2018-06-20T00:23:48.605Z,1018.1
2018-06-20T00:24:57.257Z,1018.11
2018-06-20T00:26:05.905Z,1018.1
2018-06-20T00:27:14.564Z,1018.06
2018-06-20T00:28:23.217Z,1018.05
2018-06-20T00:29:31.856Z,1018.01
2018-06-20T00:30:40.507Z,1018.03
2018-06-20T00:31:49.415Z,1018.04
2018-06-20T00:32:58.073Z,1018.05
2018-06-20T00:34:06.711Z,1018.04
2018-06-20T00:35:15.365Z,1018.06
2018-06-20T00:36:24.009Z,1018.05
2018-06-20T00:37:32.671Z,1018
2018-06-20T00:38:41.304Z,1018.03
2018-06-20T00:39:49.955Z,1017.97
2018-06-20T00:40:58.600Z,1017.99
2018-06-20T00:42:07.259Z,1017.98
2018-06-20T00:43:15.903Z,1017.96
2018-06-20T00:44:24.546Z,1017.97
2018-06-20T00:45:33.191Z,1018
2018-06-20T00:46:42.365Z,1018.01
2018-06-20T00:47:51.025Z,1017.96
2018-06-20T00:48:59.668Z,1017.97
2018-06-20T00:50:08.321Z,1017.93
2018-06-20T00:51:16.960Z,1017.92
2018-06-20T00:52:25.618Z,1017.94
2018-06-20T00:53:34.260Z,1017.89
2018-06-20T00:54:42.914Z,1017.91
2018-06-20T00:55:51.556Z,1017.93
2018-06-20T00:57:00.473Z,1017.91
2018-06-20T00:58:09.119Z,1017.93
2018-06-20T00:59:18.029Z,1017.91
2018-06-20T01:00:26.668Z,1017.93
2018-06-20T01:01:35.317Z,1017.93
2018-06-20T01:02:43.970Z,1017.91
2018-06-20T01:03:52.615Z,1017.88
2018-06-20T01:05:01.268Z,1017.86
2018-06-20T01:06:10.168Z,1017.87
2018-06-20T01:07:18.829Z,1017.85
2018-06-20T01:08:27.476Z,1017.81
2018-06-20T01:09:36.132Z,1017.8
2018-06-20T01:10:44.772Z,1017.79
2018-06-20T01:11:53.580Z,1017.74
2018-06-20T01:13:02.689Z,1017.76
2018-06-20T01:14:11.347Z,1017.72
2018-06-20T01:15:19.983Z,1017.72
2018-06-20T01:16:28.632Z,1017.76
2018-06-20T01:17:38.071Z,1017.72
2018-06-20T01:18:46.998Z,1017.73
2018-06-20T01:19:55.901Z,1017.69
2018-06-20T01:21:04.541Z,1017.75
2018-06-20T01:22:13.187Z,1017.71
2018-06-20T01:23:21.832Z,1017.73
2018-06-20T01:24:30.488Z,1017.74
2018-06-20T01:25:39.132Z,1017.72
2018-06-20T01:26:47.785Z,1017.74
2018-06-20T01:27:56.425Z,1017.74
2018-06-20T01:29:05.078Z,1017.72
2018-06-20T01:30:13.728Z,1017.69
2018-06-20T01:31:22.378Z,1017.72
2018-06-20T01:32:31.021Z,1017.73
2018-06-20T01:33:39.672Z,1017.73
2018-06-20T01:34:48.317Z,1017.75
2018-06-20T01:35:56.969Z,1017.74
2018-06-20T01:37:05.882Z,1017.76
2018-06-20T01:38:14.532Z,1017.71
2018-06-20T01:39:23.180Z,1017.71
2018-06-20T01:40:31.829Z,1017.79
2018-06-20T01:41:40.478Z,1017.74
2018-06-20T01:42:49.122Z,1017.77
2018-06-20T01:43:57.769Z,1017.76
2018-06-20T01:45:06.415Z,1017.78
2018-06-20T01:46:15.062Z,1017.75
2018-06-20T01:47:23.707Z,1017.75
2018-06-20T01:48:32.356Z,1017.73
2018-06-20T01:49:41.005Z,1017.68
2018-06-20T01:50:49.656Z,1017.69
2018-06-20T01:51:58.567Z,1017.69
2018-06-20T01:53:07.225Z,1017.71
2018-06-20T01:54:15.864Z,1017.72
2018-06-20T01:55:24.517Z,1017.68
2018-06-20T01:56:33.163Z,1017.7
2018-06-20T01:57:41.812Z,1017.74
2018-06-20T01:58:50.457Z,1017.72
2018-06-20T01:59:59.100Z,1017.69
2018-06-20T02:01:07.752Z,1017.73
2018-06-20T02:02:16.401Z,1017.7
2018-06-20T02:03:25.049Z,1017.69
2018-06-20T02:04:33.692Z,1017.69
2018-06-20T02:05:42.345Z,1017.64
2018-06-20T02:06:50.991Z,1017.66
2018-06-20T02:07:59.640Z,1017.65
2018-06-20T02:09:08.282Z,1017.64
2018-06-20T02:10:16.935Z,1017.67
2018-06-20T02:11:25.589Z,1017.67
2018-06-20T02:12:34.238Z,1017.7
2018-06-20T02:13:42.880Z,1017.69
2018-06-20T02:14:52.069Z,1017.68
2018-06-20T02:16:00.721Z,1017.7
2018-06-20T02:17:09.370Z,1017.67
2018-06-20T02:18:18.025Z,1017.64
2018-06-20T02:19:26.667Z,1017.62
2018-06-20T02:20:35.578Z,1017.59
2018-06-20T02:21:44.489Z,1017.56
2018-06-20T02:22:53.143Z,1017.59
2018-06-20T02:24:01.788Z,1017.59
2018-06-20T02:25:10.435Z,1017.58
2018-06-20T02:26:19.085Z,1017.57
2018-06-20T02:27:27.731Z,1017.57
2018-06-20T02:28:36.383Z,1017.58
2018-06-20T02:29:45.027Z,1017.57
2018-06-20T02:30:53.677Z,1017.55
2018-06-20T02:32:02.321Z,1017.54
2018-06-20T02:33:11.240Z,1017.5
2018-06-20T02:34:19.892Z,1017.53
2018-06-20T02:35:28.811Z,1017.52
2018-06-20T02:36:37.540Z,1017.47
2018-06-20T02:37:46.105Z,1017.47
2018-06-20T02:38:54.754Z,1017.52
2018-06-20T02:40:03.953Z,1017.46
2018-06-20T02:41:12.605Z,1017.46
2018-06-20T02:42:21.260Z,1017.42
2018-06-20T02:43:29.904Z,1017.4
2018-06-20T02:44:38.825Z,1017.41
2018-06-20T02:45:48.016Z,1017.4
2018-06-20T02:46:56.664Z,1017.42
2018-06-20T02:48:05.588Z,1017.41
2018-06-20T02:49:14.233Z,1017.45
2018-06-20T02:50:22.889Z,1017.39
2018-06-20T02:51:31.539Z,1017.39
2018-06-20T02:52:40.770Z,1017.36
2018-06-20T02:53:49.367Z,1017.35
2018-06-20T02:54:58.011Z,1017.38
2018-06-20T02:56:06.663Z,1017.37
2018-06-20T02:57:15.312Z,1017.36
2018-06-20T02:58:23.965Z,1017.39
2018-06-20T02:59:32.617Z,1017.35
2018-06-20T03:00:41.540Z,1017.35
2018-06-20T03:01:50.184Z,1017.33
2018-06-20T03:02:59.289Z,1017.35
2018-06-20T03:04:08.542Z,1017.33
2018-06-20T03:05:17.460Z,1017.34
2018-06-20T03:06:26.306Z,1017.33
2018-06-20T03:07:34.960Z,1017.38
2018-06-20T03:08:44.154Z,1017.38
2018-06-20T03:09:53.082Z,1017.39
2018-06-20T03:11:01.731Z,1017.38
2018-06-20T03:12:10.646Z,1017.37
2018-06-20T03:13:19.296Z,1017.35
2018-06-20T03:14:27.946Z,1017.35
2018-06-20T03:15:36.609Z,1017.34
2018-06-20T03:16:45.525Z,1017.33
2018-06-20T03:17:54.179Z,1017.32
2018-06-20T03:19:03.090Z,1017.34
2018-06-20T03:20:11.745Z,1017.34
2018-06-20T03:21:20.392Z,1017.34
2018-06-20T03:22:29.048Z,1017.34
2018-06-20T03:23:37.955Z,1017.28
2018-06-20T03:24:46.871Z,1017.32
2018-06-20T03:25:55.782Z,1017.29
2018-06-20T03:27:04.438Z,1017.26
2018-06-20T03:28:13.085Z,1017.25
2018-06-20T03:29:21.991Z,1017.26
2018-06-20T03:30:30.639Z,1017.25
2018-06-20T03:31:39.819Z,1017.21
2018-06-20T03:32:48.740Z,1017.22
2018-06-20T03:33:57.382Z,1017.19
2018-06-20T03:35:06.035Z,1017.2
2018-06-20T03:36:14.679Z,1017.17
2018-06-20T03:37:23.337Z,1017.21
2018-06-20T03:38:31.981Z,1017.19
2018-06-20T03:39:40.631Z,1017.16
2018-06-20T03:40:49.269Z,1017.2
2018-06-20T03:41:57.928Z,1017.19
2018-06-20T03:43:06.578Z,1017.17
2018-06-20T03:44:15.225Z,1017.15
2018-06-20T03:45:23.864Z,1017.15
2018-06-20T03:46:32.515Z,1017.14
2018-06-20T03:47:41.174Z,1017.12
2018-06-20T03:48:49.824Z,1017.17
2018-06-20T03:49:58.475Z,1017.17
2018-06-20T03:51:07.110Z,1017.17
2018-06-20T03:52:15.763Z,1017.19
2018-06-20T03:53:24.407Z,1017.15
2018-06-20T03:54:33.065Z,1017.16
2018-06-20T03:55:41.704Z,1017.16
2018-06-20T03:56:50.357Z,1017.2
2018-06-20T03:57:59.001Z,1017.15
2018-06-20T03:59:07.659Z,1017.14
2018-06-20T04:00:16.296Z,1017.14
2018-06-20T04:01:24.947Z,1017.12
2018-06-20T04:02:33.594Z,1017.12
2018-06-20T04:03:42.516Z,1017.12
2018-06-20T04:04:51.162Z,1017.14
2018-06-20T04:05:59.809Z,1017.16
2018-06-20T04:07:08.474Z,1017.17
2018-06-20T04:08:17.379Z,1017.2
2018-06-20T04:09:26.038Z,1017.16
2018-06-20T04:10:34.681Z,1017.2
2018-06-20T04:11:43.607Z,1017.19
2018-06-20T04:12:52.248Z,1017.19
2018-06-20T04:14:00.900Z,1017.18
2018-06-20T04:15:09.549Z,1017.18
2018-06-20T04:16:18.204Z,1017.17
2018-06-20T04:17:26.849Z,1017.14
2018-06-20T04:18:35.505Z,1017.17
2018-06-20T04:19:44.151Z,1017.18
2018-06-20T04:20:52.802Z,1017.19
2018-06-20T04:22:01.442Z,1017.17
2018-06-20T04:23:10.109Z,1017.16
2018-06-20T04:24:19.290Z,1017.16
2018-06-20T04:25:27.948Z,1017.14
2018-06-20T04:26:36.592Z,1017.13
2018-06-20T04:27:45.232Z,1017.11
2018-06-20T04:28:53.884Z,1017.1
2018-06-20T04:30:02.536Z,1017.07
2018-06-20T04:31:11.195Z,1017.07
2018-06-20T04:32:20.094Z,1017.05
2018-06-20T04:33:28.745Z,1017.08
2018-06-20T04:34:37.455Z,1017.04
2018-06-20T04:35:46.046Z,1017.06
2018-06-20T04:36:54.684Z,1017.06
2018-06-20T04:38:03.336Z,1017.08
2018-06-20T04:39:11.980Z,1017.04
2018-06-20T04:40:20.637Z,1017.06
2018-06-20T04:41:29.543Z,1017.05
2018-06-20T04:42:38.188Z,1017.05
2018-06-20T04:43:47.093Z,1017.07
2018-06-20T04:44:55.734Z,1017.08
2018-06-20T04:46:04.675Z,1017.11
2018-06-20T04:47:13.320Z,1017.06
2018-06-20T04:48:21.971Z,1017.09
2018-06-20T04:49:30.609Z,1017.09
2018-06-20T04:50:39.536Z,1017.09
2018-06-20T04:51:48.180Z,1017.07
2018-06-20T04:52:56.832Z,1017.03
2018-06-20T04:54:05.472Z,1017.03
2018-06-20T04:55:14.129Z,1017.03
2018-06-20T04:56:22.781Z,1016.99
2018-06-20T04:57:31.433Z,1016.97
2018-06-20T04:58:40.071Z,1016.97
2018-06-20T04:59:48.720Z,1016.95
2018-06-20T05:00:57.379Z,1016.95
2018-06-20T05:02:06.033Z,1016.96
2018-06-20T05:03:14.686Z,1016.98
2018-06-20T05:04:23.322Z,1017
2018-06-20T05:05:31.977Z,1016.96
2018-06-20T05:06:40.619Z,1016.99
2018-06-20T05:07:49.284Z,1016.97
2018-06-20T05:08:58.181Z,1016.98
2018-06-20T05:10:06.834Z,1016.99
2018-06-20T05:11:15.478Z,1016.96
2018-06-20T05:12:24.400Z,1016.96
2018-06-20T05:13:33.038Z,1016.93
2018-06-20T05:14:41.693Z,1016.99
2018-06-20T05:15:50.598Z,1016.97
2018-06-20T05:16:59.256Z,1016.94
2018-06-20T05:18:07.902Z,1016.96
2018-06-20T05:19:16.546Z,1016.94
2018-06-20T05:20:25.456Z,1016.9
2018-06-20T05:21:34.376Z,1016.93
2018-06-20T05:22:43.130Z,1016.93
2018-06-20T05:23:52.049Z,1016.88
2018-06-20T05:25:00.698Z,1016.87
2018-06-20T05:26:09.341Z,1016.88
2018-06-20T05:27:17.995Z,1016.89
2018-06-20T05:28:26.645Z,1016.87
2018-06-20T05:29:35.560Z,1016.87
2018-06-20T05:30:44.205Z,1016.88
2018-06-20T05:31:52.857Z,1016.86
2018-06-20T05:33:01.503Z,1016.88
2018-06-20T05:34:10.155Z,1016.9
2018-06-20T05:35:18.798Z,1016.9
2018-06-20T05:36:27.454Z,1016.92
2018-06-20T05:37:36.363Z,1016.95
2018-06-20T05:38:45.015Z,1016.93
2018-06-20T05:39:53.987Z,1016.91
2018-06-20T05:41:02.895Z,1016.93
2018-06-20T05:42:11.543Z,1016.93
2018-06-20T05:43:20.192Z,1016.9
2018-06-20T05:44:28.853Z,1016.89
2018-06-20T05:45:37.497Z,1016.96
2018-06-20T05:46:46.420Z,1016.92
2018-06-20T05:47:55.362Z,1016.94
2018-06-20T05:49:04.019Z,1016.95
2018-06-20T05:50:12.926Z,1016.94
2018-06-20T05:51:21.574Z,1016.95
2018-06-20T05:52:30.219Z,1016.94
2018-06-20T05:53:38.869Z,1016.95
2018-06-20T05:54:47.782Z,1016.93
2018-06-20T05:55:56.434Z,1016.93
2018-06-20T05:57:05.084Z,1016.96
2018-06-20T05:58:13.996Z,1016.97
2018-06-20T05:59:22.658Z,1016.94
2018-06-20T06:00:31.307Z,1016.95
2018-06-20T06:01:39.959Z,1016.94
2018-06-20T06:02:48.867Z,1016.94
2018-06-20T06:03:57.519Z,1016.92
2018-06-20T06:05:06.207Z,1016.91
2018-06-20T06:06:14.820Z,1016.91
2018-06-20T06:07:23.734Z,1016.97
2018-06-20T06:08:32.391Z,1016.97
2018-06-20T06:09:41.038Z,1016.96
2018-06-20T06:10:49.692Z,1016.99
2018-06-20T06:11:58.644Z,1016.99
2018-06-20T06:13:07.970Z,1016.98
2018-06-20T06:14:16.890Z,1017
2018-06-20T06:15:25.539Z,1016.99
2018-06-20T06:16:34.243Z,1016.97
2018-06-20T06:17:42.836Z,1016.99
2018-06-20T06:18:51.488Z,1017
2018-06-20T06:20:00.927Z,1017.05
2018-06-20T06:21:09.583Z,1017.06
2018-06-20T06:22:18.244Z,1017.05
2018-06-20T06:23:27.158Z,1017.05
2018-06-20T06:24:35.810Z,1017.03
2018-06-20T06:25:44.457Z,1017.06
2018-06-20T06:26:53.117Z,1017.03
2018-06-20T06:28:02.028Z,1017.05
2018-06-20T06:29:10.680Z,1017.08
2018-06-20T06:30:19.326Z,1017.07
2018-06-20T06:31:27.984Z,1017.05
2018-06-20T06:32:36.632Z,1017.04
2018-06-20T06:33:45.318Z,1017
2018-06-20T06:34:53.974Z,1016.99
2018-06-20T06:36:02.625Z,1017.04
2018-06-20T06:37:11.277Z,1017.01
2018-06-20T06:38:19.929Z,1017
2018-06-20T06:39:28.583Z,1016.97
2018-06-20T06:40:37.228Z,1017.01
2018-06-20T06:41:45.888Z,1017.05
2018-06-20T06:42:54.532Z,1017.05
2018-06-20T06:44:03.218Z,1017.03
2018-06-20T06:45:11.831Z,1017.05
2018-06-20T06:46:20.750Z,1017.09
2018-06-20T06:47:29.658Z,1017.08
2018-06-20T06:48:38.314Z,1017.06
2018-06-20T06:49:47.040Z,1017.05
2018-06-20T06:50:55.609Z,1017.07
2018-06-20T06:52:04.257Z,1017.06
2018-06-20T06:53:12.904Z,1017.02
2018-06-20T06:54:21.829Z,1017.02
2018-06-20T06:55:30.481Z,1017
2018-06-20T06:56:39.140Z,1017.04
2018-06-20T06:57:47.771Z,1017.02
2018-06-20T06:58:56.952Z,1017.03
2018-06-20T07:00:05.602Z,1017.03
2018-06-20T07:01:14.253Z,1017.04
2018-06-20T07:02:22.898Z,1017.02
2018-06-20T07:03:31.824Z,1017.02
2018-06-20T07:04:40.469Z,1017
2018-06-20T07:05:49.120Z,1017
2018-06-20T07:06:57.766Z,1017
2018-06-20T07:08:06.421Z,1016.98
2018-06-20T07:09:15.341Z,1016.98
2018-06-20T07:10:24.741Z,1016.99
2018-06-20T07:11:33.396Z,1016.99
2018-06-20T07:12:42.042Z,1017.02
2018-06-20T07:13:50.705Z,1017.04
2018-06-20T07:14:59.354Z,1017.04
2018-06-20T07:16:08.274Z,1017.01
2018-06-20T07:17:16.922Z,1016.99
2018-06-20T07:18:25.572Z,1016.99
2018-06-20T07:19:34.229Z,1016.99
2018-06-20T07:20:42.885Z,1017
2018-06-20T07:21:51.797Z,1016.99
2018-06-20T07:23:00.450Z,1017.01
2018-06-20T07:24:09.267Z,1017.01
2018-06-20T07:25:17.928Z,1017
2018-06-20T07:26:26.838Z,1017.02
2018-06-20T07:27:35.484Z,1017.02
2018-06-20T07:28:44.136Z,1017
2018-06-20T07:29:52.804Z,1017.01
2018-06-20T07:31:01.807Z,1017
2018-06-20T07:32:10.720Z,1016.94
2018-06-20T07:33:19.377Z,1016.97
2018-06-20T07:34:28.051Z,1016.97
2018-06-20T07:35:36.868Z,1016.95
2018-06-20T07:36:45.328Z,1016.96
2018-06-20T07:37:53.986Z,1016.98
2018-06-20T07:39:02.630Z,1016.97
2018-06-20T07:40:11.293Z,1016.97
2018-06-20T07:41:19.947Z,1016.96
2018-06-20T07:42:28.603Z,1016.93
2018-06-20T07:43:37.248Z,1016.94
2018-06-20T07:44:45.907Z,1016.93
2018-06-20T07:45:54.558Z,1016.9
2018-06-20T07:47:03.213Z,1016.93
2018-06-20T07:48:12.128Z,1016.91
2018-06-20T07:49:21.037Z,1016.93
2018-06-20T07:50:29.696Z,1016.89
2018-06-20T07:51:38.630Z,1016.94
2018-06-20T07:52:47.294Z,1016.88
2018-06-20T07:53:55.936Z,1016.89
2018-06-20T07:55:04.594Z,1016.93
2018-06-20T07:56:13.246Z,1016.91
2018-06-20T07:57:21.907Z,1016.87
2018-06-20T07:58:30.552Z,1016.92
2018-06-20T07:59:39.209Z,1016.89
2018-06-20T08:00:47.881Z,1016.86
2018-06-20T08:01:56.516Z,1016.88
2018-06-20T08:03:05.436Z,1016.9
2018-06-20T08:04:14.083Z,1016.87
2018-06-20T08:05:22.736Z,1016.91
2018-06-20T08:06:31.386Z,1016.86
2018-06-20T08:07:40.049Z,1016.86
2018-06-20T08:08:48.695Z,1016.9
2018-06-20T08:09:57.353Z,1016.87
2018-06-20T08:11:05.996Z,1016.86
2018-06-20T08:12:14.683Z,1016.84
2018-06-20T08:13:23.306Z,1016.85
2018-06-20T08:14:31.961Z,1016.88
2018-06-20T08:15:40.614Z,1016.88
2018-06-20T08:16:49.276Z,1016.92
2018-06-20T08:17:58.189Z,1016.89
2018-06-20T08:19:06.840Z,1016.89
2018-06-20T08:20:15.488Z,1016.89
2018-06-20T08:21:24.140Z,1016.88
2018-06-20T08:22:32.792Z,1016.93
2018-06-20T08:23:41.446Z,1016.91
2018-06-20T08:24:50.098Z,1016.91
2018-06-20T08:25:58.748Z,1016.85
2018-06-20T08:27:07.400Z,1016.84
2018-06-20T08:28:16.052Z,1016.85
2018-06-20T08:29:24.709Z,1016.85
2018-06-20T08:30:33.354Z,1016.82
2018-06-20T08:31:42.006Z,1016.8
2018-06-20T08:32:50.661Z,1016.81
2018-06-20T08:33:59.313Z,1016.77
2018-06-20T08:35:07.960Z,1016.79
2018-06-20T08:36:17.144Z,1016.78
2018-06-20T08:37:26.073Z,1016.83
2018-06-20T08:38:34.722Z,1016.83
2018-06-20T08:39:43.372Z,1016.83
2018-06-20T08:40:52.025Z,1016.85
2018-06-20T08:42:00.676Z,1016.87
2018-06-20T08:43:09.325Z,1016.81
2018-06-20T08:44:18.254Z,1016.81
2018-06-20T08:45:27.179Z,1016.82
2018-06-20T08:46:35.830Z,1016.89
2018-06-20T08:47:44.481Z,1016.82
2018-06-20T08:48:53.137Z,1016.89
2018-06-20T08:50:01.789Z,1016.82
2018-06-20T08:51:10.441Z,1016.83
2018-06-20T08:52:19.349Z,1016.79
2018-06-20T08:53:28.008Z,1016.87
2018-06-20T08:54:36.658Z,1016.86
2018-06-20T08:55:45.312Z,1016.85
2018-06-20T08:56:53.960Z,1016.84
2018-06-20T08:58:02.613Z,1016.81
2018-06-20T08:59:11.275Z,1016.84
2018-06-20T09:00:19.930Z,1016.77
2018-06-20T09:01:28.584Z,1016.79
2018-06-20T09:02:37.234Z,1016.76
2018-06-20T09:03:45.887Z,1016.77
2018-06-20T09:04:54.562Z,1016.78
2018-06-20T09:06:03.206Z,1016.74
2018-06-20T09:07:11.864Z,1016.72
2018-06-20T09:08:20.517Z,1016.72
2018-06-20T09:09:29.169Z,1016.69
2018-06-20T09:10:37.830Z,1016.72
2018-06-20T09:11:46.479Z,1016.72
2018-06-20T09:12:55.133Z,1016.69
2018-06-20T09:14:04.323Z,1016.7
2018-06-20T09:15:12.984Z,1016.69
2018-06-20T09:16:21.632Z,1016.68
2018-06-20T09:17:30.284Z,1016.68
2018-06-20T09:18:38.934Z,1016.72
2018-06-20T09:19:47.585Z,1016.71
2018-06-20T09:20:56.255Z,1016.68
2018-06-20T09:22:05.225Z,1016.63
2018-06-20T09:23:13.825Z,1016.6
2018-06-20T09:24:22.468Z,1016.62
2018-06-20T09:25:31.140Z,1016.6
2018-06-20T09:26:40.092Z,1016.61
2018-06-20T09:27:48.793Z,1016.62
2018-06-20T09:28:57.471Z,1016.59
2018-06-20T09:30:06.205Z,1016.56
2018-06-20T09:31:14.791Z,1016.62
2018-06-20T09:32:23.444Z,1016.59
2018-06-20T09:33:32.088Z,1016.61
2018-06-20T09:34:40.745Z,1016.58
2018-06-20T09:35:49.401Z,1016.62
2018-06-20T09:36:58.057Z,1016.59
2018-06-20T09:38:06.712Z,1016.56
2018-06-20T09:39:15.889Z,1016.55
2018-06-20T09:40:24.548Z,1016.53
2018-06-20T09:41:33.196Z,1016.59
2018-06-20T09:42:41.858Z,1016.51
2018-06-20T09:43:50.501Z,1016.54
2018-06-20T09:44:59.163Z,1016.52
2018-06-20T09:46:07.808Z,1016.51
2018-06-20T09:47:16.476Z,1016.59
2018-06-20T09:48:25.114Z,1016.52
2018-06-20T09:49:34.032Z,1016.55
2018-06-20T09:50:42.947Z,1016.5
2018-06-20T09:51:51.876Z,1016.47
2018-06-20T09:53:00.531Z,1016.5
2018-06-20T09:54:09.445Z,1016.48
2018-06-20T09:55:18.403Z,1016.51
2018-06-20T09:56:27.050Z,1016.5
2018-06-20T09:57:35.720Z,1016.44
2018-06-20T09:58:44.629Z,1016.47
2018-06-20T09:59:53.289Z,1016.44
2018-06-20T10:01:01.934Z,1016.45
2018-06-20T10:02:10.596Z,1016.47
2018-06-20T10:03:19.245Z,1016.44
2018-06-20T10:04:27.903Z,1016.46
2018-06-20T10:05:36.547Z,1016.43
2018-06-20T10:06:45.234Z,1016.49
2018-06-20T10:07:54.146Z,1016.42
2018-06-20T10:09:02.804Z,1016.38
2018-06-20T10:10:11.711Z,1016.38
2018-06-20T10:11:20.464Z,1016.36
2018-06-20T10:12:29.025Z,1016.35
2018-06-20T10:13:37.681Z,1016.31
2018-06-20T10:14:46.345Z,1016.29
2018-06-20T10:15:54.984Z,1016.39
2018-06-20T10:17:03.906Z,1016.33
2018-06-20T10:18:12.563Z,1016.32
2018-06-20T10:19:21.209Z,1016.36
2018-06-20T10:20:29.871Z,1016.3
2018-06-20T10:21:38.520Z,1016.32
2018-06-20T10:22:47.182Z,1016.27
2018-06-20T10:23:56.100Z,1016.27
2018-06-20T10:25:05.036Z,1016.24
2018-06-20T10:26:13.686Z,1016.24
2018-06-20T10:27:22.344Z,1016.25
2018-06-20T10:28:31.016Z,1016.19
2018-06-20T10:29:39.651Z,1016.23
2018-06-20T10:30:48.305Z,1016.19
2018-06-20T10:31:56.961Z,1016.18
2018-06-20T10:33:05.615Z,1016.2
2018-06-20T10:34:14.285Z,1016.14
2018-06-20T10:35:22.923Z,1016.17
2018-06-20T10:36:31.838Z,1016.14
2018-06-20T10:37:40.768Z,1016.1
2018-06-20T10:38:49.679Z,1016.1
2018-06-20T10:39:58.347Z,1016.09
2018-06-20T10:41:06.998Z,1016.06
2018-06-20T10:42:15.918Z,1016.12
2018-06-20T10:43:24.826Z,1016.09
2018-06-20T10:44:33.482Z,1016.04
2018-06-20T10:45:42.397Z,1016.04
2018-06-20T10:46:51.065Z,1016
2018-06-20T10:47:59.976Z,1015.97
2018-06-20T10:49:08.625Z,1015.98
2018-06-20T10:50:17.586Z,1015.94
2018-06-20T10:51:26.242Z,1015.94
2018-06-20T10:52:35.170Z,1015.99
2018-06-20T10:53:44.082Z,1015.99
2018-06-20T10:54:52.741Z,1015.97
2018-06-20T10:56:01.387Z,1015.9
2018-06-20T10:57:10.580Z,1015.92
2018-06-20T10:58:19.233Z,1015.9
2018-06-20T10:59:27.888Z,1015.88
2018-06-20T11:00:36.543Z,1015.86
2018-06-20T11:01:45.199Z,1015.9
2018-06-20T11:02:53.853Z,1015.88
2018-06-20T11:04:02.511Z,1015.86
2018-06-20T11:05:11.153Z,1015.82
2018-06-20T11:06:19.813Z,1015.88
2018-06-20T11:07:28.470Z,1015.84
2018-06-20T11:08:37.128Z,1015.82
2018-06-20T11:09:45.785Z,1015.85
2018-06-20T11:10:54.432Z,1015.87
2018-06-20T11:12:03.089Z,1015.85
2018-06-20T11:13:11.740Z,1015.82
2018-06-20T11:14:20.664Z,1015.71
2018-06-20T11:15:29.351Z,1015.74
2018-06-20T11:16:37.965Z,1015.74
2018-06-20T11:17:46.619Z,1015.71
2018-06-20T11:18:55.279Z,1015.72
2018-06-20T11:20:03.933Z,1015.71
2018-06-20T11:21:12.585Z,1015.69
2018-06-20T11:22:21.236Z,1015.73
2018-06-20T11:23:29.897Z,1015.73
2018-06-20T11:24:38.548Z,1015.7
2018-06-20T11:25:47.202Z,1015.61
2018-06-20T11:26:55.854Z,1015.63
2018-06-20T11:28:04.506Z,1015.64
2018-06-20T11:29:13.197Z,1015.63
2018-06-20T11:30:22.204Z,1015.57
2018-06-20T11:31:30.863Z,1015.55
2018-06-20T11:32:39.509Z,1015.54
2018-06-20T11:33:48.433Z,1015.53
2018-06-20T11:34:57.352Z,1015.47
2018-06-20T11:36:06.016Z,1015.47
2018-06-20T11:37:14.982Z,1015.47
2018-06-20T11:38:23.642Z,1015.42
2018-06-20T11:39:32.597Z,1015.43
2018-06-20T11:40:41.210Z,1015.41
2018-06-20T11:41:49.858Z,1015.36
2018-06-20T11:42:58.514Z,1015.33
2018-06-20T11:44:07.171Z,1015.34
2018-06-20T11:45:16.099Z,1015.29
2018-06-20T11:46:24.754Z,1015.36
2018-06-20T11:47:33.405Z,1015.33
2018-06-20T11:48:42.061Z,1015.27
2018-06-20T11:49:50.780Z,1015.25
2018-06-20T11:50:59.375Z,1015.24
2018-06-20T11:52:08.291Z,1015.21
2018-06-20T11:53:16.948Z,1015.13
2018-06-20T11:54:25.868Z,1015.08
2018-06-20T11:55:34.528Z,1015.09
2018-06-20T11:56:43.183Z,1015.1
2018-06-20T11:57:52.105Z,1015.04
2018-06-20T11:59:00.758Z,1015.07
2018-06-20T12:00:09.415Z,1015.02
2018-06-20T12:01:18.067Z,1015.02
2018-06-20T12:02:26.758Z,1015
2018-06-20T12:03:35.375Z,1014.99
2018-06-20T12:04:44.024Z,1015.03
2018-06-20T12:05:52.683Z,1015.06
2018-06-20T12:07:01.338Z,1015
2018-06-20T12:08:09.991Z,1015.1
2018-06-20T12:09:18.906Z,1015.02
2018-06-20T12:10:27.826Z,1015.01
2018-06-20T12:11:36.739Z,1015.03
2018-06-20T12:12:45.657Z,1014.98
2018-06-20T12:13:54.315Z,1015.03
2018-06-20T12:15:02.960Z,1014.98
2018-06-20T12:16:12.154Z,1014.97
2018-06-20T12:17:20.805Z,1015.05
2018-06-20T12:18:29.468Z,1015.01
2018-06-20T12:19:38.121Z,1014.92
2018-06-20T12:20:46.771Z,1014.92
2018-06-20T12:21:55.466Z,1014.95
2018-06-20T12:23:04.377Z,1014.9
2018-06-20T12:24:13.041Z,1014.86
2018-06-20T12:25:21.690Z,1014.85
2018-06-20T12:26:30.346Z,1014.77
2018-06-20T12:27:39.011Z,1014.74
2018-06-20T12:28:47.676Z,1014.67
2018-06-20T12:29:56.325Z,1014.74
2018-06-20T12:31:04.983Z,1014.73
2018-06-20T12:32:13.626Z,1014.68
2018-06-20T12:33:22.289Z,1014.72
2018-06-20T12:34:30.944Z,1014.69
2018-06-20T12:35:39.600Z,1014.69
2018-06-20T12:36:48.245Z,1014.61
2018-06-20T12:37:56.900Z,1014.66
2018-06-20T12:39:05.558Z,1014.6
2018-06-20T12:40:14.483Z,1014.63
2018-06-20T12:41:23.144Z,1014.62
2018-06-20T12:42:31.793Z,1014.59
2018-06-20T12:43:40.713Z,1014.59
2018-06-20T12:44:49.362Z,1014.6
2018-06-20T12:45:58.028Z,1014.53
2018-06-20T12:47:06.680Z,1014.54
2018-06-20T12:48:15.333Z,1014.54
2018-06-20T12:49:23.982Z,1014.55
2018-06-20T12:50:32.647Z,1014.53
2018-06-20T12:51:41.293Z,1014.5
2018-06-20T12:52:49.950Z,1014.61
2018-06-20T12:53:58.606Z,1014.57
2018-06-20T12:55:07.268Z,1014.55
2018-06-20T12:56:15.919Z,1014.51
2018-06-20T12:57:24.569Z,1014.47
2018-06-20T12:58:33.225Z,1014.49
2018-06-20T12:59:41.879Z,1014.42
2018-06-20T13:00:50.544Z,1014.42
2018-06-20T13:01:59.465Z,1014.45
2018-06-20T13:03:08.125Z,1014.44
2018-06-20T13:04:16.771Z,1014.44
2018-06-20T13:05:25.436Z,1014.41
2018-06-20T13:06:34.089Z,1014.44
2018-06-20T13:07:42.747Z,1014.41
2018-06-20T13:08:51.392Z,1014.47
2018-06-20T13:10:00.062Z,1014.47
2018-06-20T13:11:08.980Z,1014.37
2018-06-20T13:12:17.638Z,1014.44
2018-06-20T13:13:26.285Z,1014.38
2018-06-20T13:14:34.944Z,1014.35
2018-06-20T13:15:43.597Z,1014.35
2018-06-20T13:16:52.255Z,1014.33
2018-06-20T13:18:00.912Z,1014.25
2018-06-20T13:19:09.564Z,1014.29
2018-06-20T13:20:18.262Z,1014.28
2018-06-20T13:21:26.884Z,1014.37
2018-06-20T13:22:35.536Z,1014.31
2018-06-20T13:23:44.707Z,1014.39
2018-06-20T13:24:53.362Z,1014.32
2018-06-20T13:26:02.015Z,1014.28
2018-06-20T13:27:10.675Z,1014.27
2018-06-20T13:28:19.326Z,1014.28
2018-06-20T13:29:28.249Z,1014.21
2018-06-20T13:30:36.902Z,1014.22
2018-06-20T13:31:45.561Z,1014.15
2018-06-20T13:32:54.217Z,1014.17
2018-06-20T13:34:03.136Z,1014.18
2018-06-20T13:35:11.795Z,1014.19
2018-06-20T13:36:20.711Z,1014.08
2018-06-20T13:37:29.371Z,1014.07
2018-06-20T13:38:38.025Z,1014.09
2018-06-20T13:39:46.700Z,1014.13
2018-06-20T13:40:55.330Z,1014.09
2018-06-20T13:42:03.994Z,1014.17
2018-06-20T13:43:12.648Z,1014.06
2018-06-20T13:44:21.303Z,1014.08
2018-06-20T13:45:29.954Z,1014.07
2018-06-20T13:46:38.614Z,1014.08
2018-06-20T13:47:47.271Z,1014.03
2018-06-20T13:48:56.193Z,1013.98
2018-06-20T13:50:04.840Z,1014.02
2018-06-20T13:51:13.497Z,1014
2018-06-20T13:52:22.155Z,1014.03
2018-06-20T13:53:30.806Z,1014.01
2018-06-20T13:54:39.474Z,1013.94